Grates Cove, Canada
Current Conditions -  °F | °C
As of 5:00 AM on Monday 24 Nov 2014 (Local Time) from CYYT Reporting Station
Few Clouds Few Clouds  
Wind Chill: 17°   Ceiling: Unl
Heat Index: 28°   Visibility: 15mi
Dew Point: 19°   Wind: 15mph
Humidity: 69%   Direction: 300°WNW
Pressure: 30.13"   Gusts: NA
Location:  48.17°N, 52.93°W
Report Text: CYYT 240800Z 30013KT 15SM FEW025 FEW220 M02/M07 A3013 RMK SC1CI1 SLP210
Loading
Personal Weather Stations






























Interactive Weather Map New forecast layout! Learn more

10-Day Weather Forecast

Advertisements
Track Severe Weather on mobile